createdAt,value
2022-09-09T00:01:52.315Z,13.50
2022-09-09T00:04:39.463Z,13.50
2022-09-09T00:07:11.154Z,13.50
2022-09-09T00:09:52.389Z,13.50
2022-09-09T00:12:44.062Z,13.50
2022-09-09T00:15:21.511Z,13.50
2022-09-09T00:18:10.780Z,13.50
2022-09-09T00:21:00.350Z,13.50
2022-09-09T00:23:33.962Z,13.50
2022-09-09T00:26:06.049Z,13.50
2022-09-09T00:28:42.584Z,13.50
2022-09-09T00:31:26.223Z,13.50
2022-09-09T00:34:27.549Z,13.50
2022-09-09T00:36:57.418Z,13.40
2022-09-09T00:39:49.050Z,13.40
2022-09-09T00:42:25.487Z,13.40
2022-09-09T00:45:18.476Z,13.40
2022-09-09T00:47:53.105Z,13.40
2022-09-09T00:50:57.505Z,13.40
2022-09-09T00:53:48.465Z,13.40
2022-09-09T00:56:43.623Z,13.40
2022-09-09T00:59:46.756Z,13.40
2022-09-09T01:02:31.565Z,13.40
2022-09-09T01:05:20.838Z,13.40
2022-09-09T01:07:52.237Z,13.40
2022-09-09T01:10:37.491Z,13.40
2022-09-09T01:13:14.196Z,13.50
2022-09-09T01:15:49.571Z,13.40
2022-09-09T01:18:27.455Z,13.50
2022-09-09T01:21:01.423Z,13.40
2022-09-09T01:23:55.215Z,13.40
2022-09-09T01:27:00.174Z,13.50
2022-09-09T01:29:30.014Z,13.40
2022-09-09T01:32:24.455Z,13.40
2022-09-09T01:34:52.586Z,13.40
2022-09-09T01:37:27.435Z,13.40
2022-09-09T01:39:54.727Z,13.30
2022-09-09T01:42:28.907Z,13.40
2022-09-09T01:44:56.282Z,13.30
2022-09-09T01:47:25.823Z,13.40
2022-09-09T01:49:54.070Z,13.40
2022-09-09T01:52:21.255Z,13.30
2022-09-09T01:54:48.573Z,13.40
2022-09-09T01:57:39.533Z,13.40
2022-09-09T02:00:12.972Z,13.40
2022-09-09T02:02:58.283Z,13.40
2022-09-09T02:05:39.246Z,13.40
2022-09-09T02:08:21.334Z,13.40
2022-09-09T02:10:48.186Z,13.40
2022-09-09T02:13:18.373Z,13.40
2022-09-09T02:16:03.086Z,13.40
2022-09-09T02:18:57.298Z,13.40
2022-09-09T02:21:30.152Z,13.40
2022-09-09T02:24:01.483Z,13.40
2022-09-09T02:26:32.789Z,13.40
2022-09-09T02:29:04.089Z,13.40
2022-09-09T02:31:37.072Z,13.40
2022-09-09T02:34:09.140Z,13.30
2022-09-09T02:36:38.038Z,13.40
2022-09-09T02:39:08.876Z,13.40
2022-09-09T02:41:40.161Z,13.40
2022-09-09T02:44:20.785Z,13.40
2022-09-09T02:47:34.818Z,13.40
2022-09-09T02:50:14.797Z,13.40
2022-09-09T02:52:52.527Z,13.40
2022-09-09T02:55:41.662Z,13.40
2022-09-09T02:58:21.025Z,13.40
2022-09-09T03:00:58.417Z,13.40
2022-09-09T03:03:26.482Z,13.40
2022-09-09T03:05:53.546Z,13.40
2022-09-09T03:08:22.767Z,13.40
2022-09-09T03:10:50.687Z,13.50
2022-09-09T03:13:20.388Z,13.50
2022-09-09T03:15:49.426Z,13.50
2022-09-09T03:18:16.430Z,13.50
2022-09-09T03:20:47.925Z,13.50
2022-09-09T03:23:16.049Z,13.50
2022-09-09T03:25:53.185Z,13.50
2022-09-09T03:28:20.737Z,13.50
2022-09-09T03:30:47.936Z,13.40
2022-09-09T03:33:16.058Z,13.40
2022-09-09T03:35:49.911Z,13.50
2022-09-09T03:38:23.451Z,13.50
2022-09-09T03:40:58.285Z,13.50
2022-09-09T03:43:28.185Z,13.50
2022-09-09T03:45:58.850Z,13.50
2022-09-09T03:48:28.102Z,13.50
2022-09-09T03:51:05.199Z,13.50
2022-09-09T03:53:35.537Z,13.50
2022-09-09T03:56:04.297Z,13.50
2022-09-09T03:58:37.753Z,13.60
2022-09-09T04:01:12.150Z,13.50
2022-09-09T04:03:39.446Z,13.50
2022-09-09T04:06:09.213Z,13.50
2022-09-09T04:08:37.439Z,13.60
2022-09-09T04:11:07.465Z,13.60
2022-09-09T04:13:35.981Z,13.60
2022-09-09T04:16:04.983Z,13.60
2022-09-09T04:18:35.778Z,13.60
2022-09-09T04:21:11.258Z,13.60
2022-09-09T04:23:45.420Z,13.60
2022-09-09T04:26:15.870Z,13.60
2022-09-09T04:28:48.764Z,13.50
2022-09-09T04:31:24.808Z,13.60
2022-09-09T04:33:53.486Z,13.50
2022-09-09T04:36:21.201Z,13.50
2022-09-09T04:38:51.334Z,13.50
2022-09-09T04:41:18.862Z,13.60
2022-09-09T04:43:46.201Z,13.60
2022-09-09T04:46:13.546Z,13.60
2022-09-09T04:48:41.572Z,13.60
2022-09-09T04:51:12.512Z,13.50
2022-09-09T04:53:40.755Z,13.60
2022-09-09T04:56:13.579Z,13.60
2022-09-09T04:58:46.605Z,13.60
2022-09-09T05:01:20.464Z,13.60
2022-09-09T05:03:48.255Z,13.60
2022-09-09T05:06:21.919Z,13.60
2022-09-09T05:08:50.443Z,13.60
2022-09-09T05:11:25.425Z,13.70
2022-09-09T05:13:54.200Z,13.70
2022-09-09T05:16:27.633Z,13.70
2022-09-09T05:18:55.020Z,13.70
2022-09-09T05:21:25.055Z,13.70
2022-09-09T05:23:52.558Z,13.80
2022-09-09T05:26:22.134Z,13.80
2022-09-09T05:28:49.225Z,13.80
2022-09-09T05:31:18.163Z,13.80
2022-09-09T05:33:47.969Z,13.80
2022-09-09T05:36:21.171Z,13.80
2022-09-09T05:38:50.540Z,13.80
2022-09-09T05:41:18.399Z,13.80
2022-09-09T05:43:48.014Z,13.80
2022-09-09T05:46:20.962Z,13.90
2022-09-09T05:48:49.541Z,13.80
2022-09-09T05:51:19.694Z,13.80
2022-09-09T05:53:48.261Z,13.80
2022-09-09T05:56:20.398Z,13.80
2022-09-09T05:58:50.948Z,13.90
2022-09-09T06:01:24.571Z,13.90
2022-09-09T06:03:53.662Z,13.90
2022-09-09T06:06:23.372Z,13.90
2022-09-09T06:08:53.510Z,13.90
2022-09-09T06:11:25.836Z,13.90
2022-09-09T06:13:54.911Z,14.00
2022-09-09T06:16:24.864Z,14.00
2022-09-09T06:18:53.133Z,14.00
2022-09-09T06:21:21.393Z,14.00
2022-09-09T06:23:48.810Z,14.00
2022-09-09T06:26:19.117Z,14.00
2022-09-09T06:28:49.434Z,14.10
2022-09-09T06:31:18.923Z,14.10
2022-09-09T06:33:46.120Z,14.10
2022-09-09T06:36:19.084Z,14.10
2022-09-09T06:38:47.119Z,14.20
2022-09-09T06:41:16.006Z,14.20
2022-09-09T06:43:43.419Z,14.30
2022-09-09T06:46:19.516Z,14.40
2022-09-09T06:48:47.771Z,14.40
2022-09-09T06:51:18.666Z,14.40
2022-09-09T06:53:54.485Z,14.50
2022-09-09T06:56:34.591Z,14.50
2022-09-09T06:59:05.300Z,14.60
2022-09-09T07:01:35.732Z,14.70
2022-09-09T07:04:05.397Z,14.80
2022-09-09T07:06:38.210Z,14.90
2022-09-09T07:09:10.369Z,15.00
2022-09-09T07:11:45.994Z,15.10
2022-09-09T07:14:15.033Z,15.20
2022-09-09T07:16:46.540Z,15.20
2022-09-09T07:19:15.433Z,15.30
2022-09-09T07:21:43.248Z,15.40
2022-09-09T07:24:11.817Z,15.40
2022-09-09T07:26:40.556Z,15.50
2022-09-09T07:29:08.808Z,15.60
2022-09-09T07:31:37.846Z,15.60
2022-09-09T07:34:05.798Z,15.60
2022-09-09T07:36:35.360Z,15.60
2022-09-09T07:39:06.014Z,15.70
2022-09-09T07:41:40.879Z,15.70
2022-09-09T07:44:11.845Z,15.70
2022-09-09T07:46:42.748Z,15.80
2022-09-09T07:49:11.116Z,15.80
2022-09-09T07:51:41.707Z,15.80
2022-09-09T07:54:12.119Z,15.80
2022-09-09T07:56:40.481Z,15.90
2022-09-09T07:59:08.036Z,15.80
2022-09-09T08:01:40.380Z,15.80
2022-09-09T08:04:18.802Z,15.80
2022-09-09T08:06:49.602Z,15.80
2022-09-09T08:09:17.199Z,15.80
2022-09-09T08:11:44.759Z,15.80
2022-09-09T08:14:12.754Z,15.80
2022-09-09T08:16:45.605Z,15.90
2022-09-09T08:19:13.465Z,15.90
2022-09-09T08:21:41.883Z,16.00
2022-09-09T08:24:11.524Z,16.10
2022-09-09T08:26:42.552Z,16.10
2022-09-09T08:29:11.287Z,16.20
2022-09-09T08:31:58.459Z,16.30
2022-09-09T08:34:27.947Z,16.30
2022-09-09T08:36:55.750Z,16.40
2022-09-09T08:39:24.010Z,16.50
2022-09-09T08:42:30.549Z,16.50
2022-09-09T08:45:20.323Z,16.60
2022-09-09T08:48:15.381Z,16.70
2022-09-09T08:50:44.361Z,16.80
2022-09-09T08:53:21.129Z,16.90
2022-09-09T08:56:02.529Z,16.90
2022-09-09T08:58:32.827Z,16.90
2022-09-09T09:01:02.706Z,16.90
2022-09-09T09:03:42.812Z,16.90
2022-09-09T09:06:37.746Z,16.80
2022-09-09T09:09:27.664Z,16.90
2022-09-09T09:12:03.384Z,16.90
2022-09-09T09:14:35.096Z,17.00
2022-09-09T09:17:14.235Z,17.10
2022-09-09T09:19:43.178Z,17.10
2022-09-09T09:22:34.589Z,17.20
2022-09-09T09:25:20.564Z,17.20
2022-09-09T09:28:02.727Z,17.20
2022-09-09T09:30:55.316Z,17.20
2022-09-09T09:33:24.509Z,17.20
2022-09-09T09:35:52.016Z,17.20
2022-09-09T09:41:14.852Z,17.30
2022-09-09T09:43:45.509Z,17.40
2022-09-09T09:46:24.874Z,17.50
2022-09-09T09:48:58.913Z,17.60
2022-09-09T09:51:27.554Z,17.70
2022-09-09T09:53:54.983Z,17.70
2022-09-09T09:56:33.718Z,17.80
2022-09-09T09:59:03.703Z,17.90
2022-09-09T10:01:36.937Z,18.00
2022-09-09T10:04:19.629Z,18.10
2022-09-09T10:06:46.745Z,18.10
2022-09-09T10:09:35.605Z,18.10
2022-09-09T10:12:02.434Z,18.00
2022-09-09T10:14:41.367Z,18.00
2022-09-09T10:17:29.823Z,18.00
2022-09-09T10:20:13.714Z,18.00
2022-09-09T10:22:48.646Z,17.90
2022-09-09T10:25:31.322Z,17.80
2022-09-09T10:28:16.463Z,17.70
2022-09-09T10:30:58.568Z,17.70
2022-09-09T10:33:51.506Z,17.60
2022-09-09T10:36:27.118Z,17.50
2022-09-09T10:39:04.826Z,17.50
2022-09-09T10:41:51.570Z,17.50
2022-09-09T10:44:38.733Z,17.60
2022-09-09T10:47:27.978Z,17.60
2022-09-09T10:50:19.752Z,17.70
2022-09-09T10:52:53.634Z,17.70
2022-09-09T10:55:37.148Z,17.70
2022-09-09T10:58:07.619Z,17.80
2022-09-09T11:00:46.929Z,17.80
2022-09-09T11:03:23.464Z,17.80
2022-09-09T11:06:00.894Z,17.80
2022-09-09T11:08:30.598Z,17.80
2022-09-09T11:11:05.385Z,17.90
2022-09-09T11:13:57.950Z,17.90
2022-09-09T11:16:33.789Z,17.90
2022-09-09T11:19:16.130Z,17.90
2022-09-09T11:21:48.435Z,17.90
2022-09-09T11:24:23.710Z,17.90
2022-09-09T11:27:36.112Z,17.80
2022-09-09T11:30:13.808Z,17.80
2022-09-09T11:33:22.303Z,17.90
2022-09-09T11:36:29.538Z,18.00
2022-09-09T11:39:08.780Z,18.00
2022-09-09T11:41:38.446Z,18.00
2022-09-09T11:44:26.946Z,18.00
2022-09-09T11:46:53.944Z,18.00
2022-09-09T11:49:42.843Z,18.00
2022-09-09T11:52:26.677Z,18.10
2022-09-09T11:54:56.470Z,18.10
2022-09-09T11:57:33.225Z,18.10
2022-09-09T12:00:01.030Z,18.00
2022-09-09T12:02:33.017Z,18.00
2022-09-09T12:05:13.366Z,18.10
2022-09-09T12:07:48.280Z,18.20
2022-09-09T12:10:42.222Z,18.30
2022-09-09T12:13:17.910Z,18.50
2022-09-09T12:16:12.588Z,18.70
2022-09-09T12:18:40.951Z,18.90
2022-09-09T12:21:40.049Z,19.00
2022-09-09T12:24:21.291Z,19.10
2022-09-09T12:27:21.131Z,19.20
2022-09-09T12:30:03.078Z,19.20
2022-09-09T12:32:31.141Z,19.30
2022-09-09T12:35:06.246Z,19.40
2022-09-09T12:37:50.218Z,19.50
2022-09-09T12:40:36.435Z,19.60
2022-09-09T12:43:22.402Z,19.70
2022-09-09T12:45:57.680Z,19.80
2022-09-09T12:48:32.647Z,19.80
2022-09-09T12:51:00.555Z,19.90
2022-09-09T12:53:32.790Z,19.90
2022-09-09T12:56:05.966Z,20.00
2022-09-09T12:58:34.082Z,20.10
2022-09-09T13:01:05.786Z,20.10
2022-09-09T13:03:35.010Z,20.10
2022-09-09T13:06:28.616Z,20.10
2022-09-09T13:08:59.811Z,20.20
2022-09-09T13:11:49.210Z,20.30
2022-09-09T13:14:35.883Z,20.50
2022-09-09T13:17:05.133Z,20.60
2022-09-09T13:19:36.861Z,20.70
2022-09-09T13:22:24.092Z,20.90
2022-09-09T13:25:06.281Z,21.00
2022-09-09T13:27:42.809Z,21.20
2022-09-09T13:30:26.513Z,21.30
2022-09-09T13:33:03.335Z,21.40
2022-09-09T13:35:31.383Z,21.30
2022-09-09T13:38:01.019Z,21.30
2022-09-09T13:40:28.877Z,21.20
2022-09-09T13:42:59.031Z,21.00
2022-09-09T13:45:27.911Z,21.00
2022-09-09T13:47:56.909Z,20.80
2022-09-09T13:50:31.244Z,20.60
2022-09-09T13:53:02.514Z,20.50
2022-09-09T13:55:38.083Z,20.40
2022-09-09T13:58:06.669Z,20.30
2022-09-09T14:00:36.139Z,20.20
2022-09-09T14:03:03.476Z,20.10
2022-09-09T14:05:33.658Z,20.00
2022-09-09T14:08:04.145Z,19.90
2022-09-09T14:10:36.902Z,19.90
2022-09-09T14:13:05.049Z,20.00
2022-09-09T14:15:32.150Z,20.40
2022-09-09T14:18:00.068Z,20.80
2022-09-09T14:20:27.154Z,21.20
2022-09-09T14:22:54.625Z,21.60
2022-09-09T14:25:21.658Z,22.00
2022-09-09T14:27:48.868Z,22.30
2022-09-09T14:30:17.089Z,22.50
2022-09-09T14:32:44.180Z,22.60
2022-09-09T14:35:11.809Z,22.80
2022-09-09T14:37:40.709Z,23.00
2022-09-09T14:40:09.378Z,23.20
2022-09-09T14:42:36.551Z,23.50
2022-09-09T14:45:03.919Z,23.50
2022-09-09T14:47:33.295Z,23.60
2022-09-09T14:50:02.055Z,23.60
2022-09-09T14:52:30.523Z,23.80
2022-09-09T14:55:00.722Z,23.90
2022-09-09T14:57:27.792Z,24.00
2022-09-09T14:59:54.920Z,24.00
2022-09-09T15:02:22.030Z,24.00
2022-09-09T15:04:50.991Z,24.10
2022-09-09T15:07:20.566Z,24.40
2022-09-09T15:09:49.677Z,24.70
2022-09-09T15:12:19.937Z,25.10
2022-09-09T15:14:47.625Z,25.50
2022-09-09T15:17:14.964Z,25.80
2022-09-09T15:19:44.041Z,25.80
2022-09-09T15:22:11.334Z,25.60
2022-09-09T15:24:41.400Z,25.30
2022-09-09T15:27:08.966Z,24.70
2022-09-09T15:29:36.016Z,24.20
2022-09-09T15:32:03.226Z,23.80
2022-09-09T15:34:30.116Z,23.60
2022-09-09T15:36:57.161Z,23.50
2022-09-09T15:39:24.466Z,23.40
2022-09-09T15:41:52.218Z,23.50
2022-09-09T15:44:20.649Z,23.60
2022-09-09T15:46:51.619Z,23.60
2022-09-09T15:49:20.040Z,23.70
2022-09-09T15:51:53.746Z,23.60
2022-09-09T15:54:24.584Z,23.50
2022-09-09T15:56:57.659Z,23.30
2022-09-09T15:59:26.940Z,23.00
2022-09-09T16:01:56.010Z,22.70
2022-09-09T16:04:24.643Z,22.40
2022-09-09T16:06:56.913Z,22.10
2022-09-09T16:09:24.106Z,21.80
2022-09-09T16:11:51.191Z,21.50
2022-09-09T16:14:18.802Z,21.20
2022-09-09T16:16:45.777Z,20.90
2022-09-09T16:19:14.069Z,20.60
2022-09-09T16:21:46.818Z,20.30
2022-09-09T16:24:16.931Z,20.00
2022-09-09T16:26:46.712Z,19.80
2022-09-09T16:29:15.807Z,19.50
2022-09-09T16:31:44.368Z,19.30
2022-09-09T16:34:12.552Z,19.10
2022-09-09T16:36:41.482Z,19.00
2022-09-09T16:39:16.872Z,18.80
2022-09-09T16:41:46.202Z,18.60
2022-09-09T16:44:16.704Z,18.40
2022-09-09T16:46:44.458Z,18.20
2022-09-09T16:49:16.101Z,18.10
2022-09-09T16:51:46.121Z,17.90
2022-09-09T16:54:15.315Z,17.80
2022-09-09T16:56:44.455Z,17.60
2022-09-09T16:59:19.069Z,17.50
2022-09-09T17:01:47.946Z,17.40
2022-09-09T17:04:21.355Z,17.30
2022-09-09T17:06:53.103Z,17.20
2022-09-09T17:09:21.225Z,17.10
2022-09-09T17:11:49.050Z,17.00
2022-09-09T17:14:19.198Z,16.90
2022-09-09T17:16:46.518Z,16.90
2022-09-09T17:19:14.289Z,16.80
2022-09-09T17:21:54.958Z,16.80
2022-09-09T17:24:30.593Z,16.70
2022-09-09T17:26:58.492Z,16.70
2022-09-09T17:29:26.124Z,16.60
2022-09-09T17:31:53.932Z,16.60
2022-09-09T17:34:21.124Z,16.60
2022-09-09T17:36:48.381Z,16.60
2022-09-09T17:39:15.903Z,16.60
2022-09-09T17:41:43.909Z,16.50
2022-09-09T17:44:11.202Z,16.50
2022-09-09T17:46:43.840Z,16.50
2022-09-09T17:49:15.824Z,16.50
2022-09-09T17:51:44.325Z,16.50
2022-09-09T17:54:17.489Z,16.50
2022-09-09T17:56:45.187Z,16.40
2022-09-09T17:59:13.652Z,16.40
2022-09-09T18:01:43.701Z,16.40
2022-09-09T18:04:14.542Z,16.40
2022-09-09T18:06:48.304Z,16.40
2022-09-09T18:09:26.990Z,16.40
2022-09-09T18:11:56.555Z,16.40
2022-09-09T18:14:32.938Z,16.40
2022-09-09T18:17:01.640Z,16.40
2022-09-09T18:19:30.928Z,16.40
2022-09-09T18:22:00.368Z,16.40
2022-09-09T18:24:30.480Z,16.40
2022-09-09T18:26:57.325Z,16.40
2022-09-09T18:29:27.617Z,16.30
2022-09-09T18:31:55.789Z,16.30
2022-09-09T18:34:25.896Z,16.30
2022-09-09T18:36:55.044Z,16.30
2022-09-09T18:39:32.410Z,16.30
2022-09-09T18:42:01.617Z,16.30
2022-09-09T18:44:32.492Z,16.30
2022-09-09T18:47:00.303Z,16.30
2022-09-09T18:49:27.644Z,16.30
2022-09-09T18:51:54.542Z,16.30
2022-09-09T18:54:24.778Z,16.20
2022-09-09T18:56:53.068Z,16.20
2022-09-09T18:59:21.890Z,16.20
2022-09-09T19:01:50.664Z,16.20
2022-09-09T19:04:19.110Z,16.20
2022-09-09T19:06:48.395Z,16.20
2022-09-09T19:09:17.359Z,16.20
2022-09-09T19:11:45.574Z,16.20
2022-09-09T19:14:15.948Z,16.20
2022-09-09T19:16:44.267Z,16.10
2022-09-09T19:19:26.887Z,16.10
2022-09-09T19:21:57.447Z,16.10
2022-09-09T19:24:27.445Z,16.10
2022-09-09T19:26:57.972Z,16.10
2022-09-09T19:29:28.490Z,16.10
2022-09-09T19:34:46.792Z,16.00
2022-09-09T19:37:18.122Z,16.00
2022-09-09T19:39:46.564Z,16.00
2022-09-09T19:42:13.444Z,16.00
2022-09-09T19:44:40.318Z,16.00
2022-09-09T19:47:07.374Z,15.90
2022-09-09T19:49:35.285Z,15.90
2022-09-09T19:52:02.478Z,15.90
2022-09-09T19:54:29.477Z,15.80
2022-09-09T19:56:56.751Z,15.80
2022-09-09T19:59:23.787Z,15.80
2022-09-09T20:01:51.464Z,15.70
2022-09-09T20:04:18.718Z,15.70
2022-09-09T20:06:46.374Z,15.70
2022-09-09T20:09:16.362Z,15.70
2022-09-09T20:11:45.147Z,15.60
2022-09-09T20:14:13.345Z,15.60
2022-09-09T20:16:40.804Z,15.60
2022-09-09T20:19:11.194Z,15.60
2022-09-09T20:21:46.504Z,15.60
2022-09-09T20:24:15.462Z,15.60
2022-09-09T20:26:42.350Z,15.50
2022-09-09T20:29:15.963Z,15.50
2022-09-09T20:31:44.095Z,15.50
2022-09-09T20:34:16.509Z,15.50
2022-09-09T20:36:44.039Z,15.50
2022-09-09T20:39:15.142Z,15.50
2022-09-09T20:41:44.482Z,15.50
2022-09-09T20:44:16.563Z,15.50
2022-09-09T20:46:48.670Z,15.50
2022-09-09T20:49:17.825Z,15.50
2022-09-09T20:51:45.688Z,15.50
2022-09-09T20:54:16.590Z,15.50
2022-09-09T20:56:45.155Z,15.50
2022-09-09T20:59:16.914Z,15.50
2022-09-09T21:01:44.568Z,15.50
2022-09-09T21:04:11.969Z,15.50
2022-09-09T21:06:38.821Z,15.50
2022-09-09T21:09:06.685Z,15.50
2022-09-09T21:11:35.147Z,15.50
2022-09-09T21:14:03.011Z,15.50
2022-09-09T21:16:30.343Z,15.50
2022-09-09T21:18:59.133Z,15.40
2022-09-09T21:21:26.806Z,15.50
2022-09-09T21:23:56.990Z,15.40
2022-09-09T21:26:25.259Z,15.40
2022-09-09T21:28:53.956Z,15.40
2022-09-09T21:31:26.945Z,15.30
2022-09-09T21:33:54.372Z,15.30
2022-09-09T21:36:21.260Z,15.30
2022-09-09T21:38:48.093Z,15.30
2022-09-09T21:41:16.378Z,15.30
2022-09-09T21:43:45.236Z,15.20
2022-09-09T21:46:16.323Z,15.20
2022-09-09T21:48:43.860Z,15.20
2022-09-09T21:51:16.286Z,15.10
2022-09-09T21:53:43.807Z,15.10
2022-09-09T21:56:13.451Z,15.10
2022-09-09T21:58:43.339Z,15.10
2022-09-09T22:01:16.396Z,15.00
2022-09-09T22:03:45.861Z,15.00
2022-09-09T22:06:15.905Z,15.00
2022-09-09T22:08:44.116Z,15.00
2022-09-09T22:11:14.617Z,15.10
2022-09-09T22:13:44.838Z,15.10
2022-09-09T22:16:15.550Z,15.10
2022-09-09T22:18:43.326Z,15.10
2022-09-09T22:21:17.098Z,15.10
2022-09-09T22:23:47.061Z,15.10
2022-09-09T22:26:15.307Z,15.10
2022-09-09T22:28:44.641Z,15.10
2022-09-09T22:31:11.794Z,15.10
2022-09-09T22:33:38.841Z,15.10
2022-09-09T22:36:06.174Z,15.10
2022-09-09T22:38:35.341Z,15.10
2022-09-09T22:41:03.644Z,15.10
2022-09-09T22:43:33.200Z,15.10
2022-09-09T22:46:02.431Z,15.10
2022-09-09T22:48:33.868Z,15.10
2022-09-09T22:51:11.123Z,15.10
2022-09-09T22:53:39.753Z,15.10
2022-09-09T22:56:08.310Z,15.10
2022-09-09T22:58:37.146Z,15.00
2022-09-09T23:01:15.440Z,15.00
2022-09-09T23:03:46.193Z,15.00
2022-09-09T23:06:22.131Z,15.00
2022-09-09T23:08:53.353Z,15.00
2022-09-09T23:11:21.607Z,15.10
2022-09-09T23:13:52.551Z,15.10
2022-09-09T23:16:22.883Z,15.10
2022-09-09T23:18:52.205Z,15.10
2022-09-09T23:21:19.849Z,15.10
2022-09-09T23:23:47.094Z,15.10
2022-09-09T23:26:19.151Z,15.10
2022-09-09T23:28:47.741Z,15.10
2022-09-09T23:31:19.782Z,15.10
2022-09-09T23:33:48.085Z,15.10
2022-09-09T23:36:19.477Z,15.10
2022-09-09T23:38:47.526Z,15.10
2022-09-09T23:41:20.946Z,15.00
2022-09-09T23:43:49.427Z,15.00
2022-09-09T23:46:20.379Z,15.00
2022-09-09T23:48:51.717Z,14.90
2022-09-09T23:51:23.870Z,14.90
2022-09-09T23:53:57.117Z,14.90
2022-09-09T23:56:31.872Z,14.90
2022-09-09T23:58:59.222Z,14.80
